Time;durP1;ratioP1;P1;durP2;ratioP2;P2;SDS_P1;SDS_P2;PMS_P1;PMS_P2;Temp;Humidity;BMP_temperature;BMP_pressure;BME280_temperature;BME280_humidity;BME280_pressure;Samples;Min_cycle;Max_cycle;Signal;HPM_P1;HPM_P2
2023/02/17 00:00:09;;;;;;;21.80;15.30;;;;;;;;;;4971352;28;20176;-75
2023/02/17 00:02:34;;;;;;;26.27;15.73;;;;;;;;;;4972938;28;20658;-76
2023/02/17 00:04:59;;;;;;;24.93;15.60;;;;;;;;;;4971731;28;20263;-76
2023/02/17 00:07:30;;;;;;;26.33;15.80;;;;;;;;;;4972132;28;20172;-76
2023/02/17 00:09:55;;;;;;;24.27;16.00;;;;;;;;;;4973164;28;20189;-77
2023/02/17 00:12:20;;;;;;;22.93;14.87;;;;;;;;;;4973038;28;20532;-76
2023/02/17 00:14:45;;;;;;;24.60;14.87;;;;;;;;;;4970820;28;20235;-76
2023/02/17 00:17:11;;;;;;;22.13;14.53;;;;;;;;;;4973353;28;20281;-76
2023/02/17 00:19:36;;;;;;;21.93;14.43;;;;;;;;;;4961149;28;20643;-76
2023/02/17 00:22:01;;;;;;;20.03;13.87;;;;;;;;;;4979155;28;20198;-75
2023/02/17 00:24:28;;;;;;;23.43;14.37;;;;;;;;;;4979244;28;20173;-75
2023/02/17 00:26:53;;;;;;;22.67;13.60;;;;;;;;;;4977919;28;20272;-76
2023/02/17 00:29:19;;;;;;;21.27;13.20;;;;;;;;;;4976440;28;20219;-76
2023/02/17 00:31:44;;;;;;;22.43;13.67;;;;;;;;;;4977161;28;20192;-76
2023/02/17 00:34:09;;;;;;;21.73;12.33;;;;;;;;;;4975545;28;20179;-76
2023/02/17 00:36:34;;;;;;;23.33;13.43;;;;;;;;;;4970366;28;20647;-76
2023/02/17 00:39:00;;;;;;;19.67;12.63;;;;;;;;;;4969861;28;20230;-76
2023/02/17 00:41:27;;;;;;;19.70;12.47;;;;;;;;;;4975235;28;20235;-76
2023/02/17 00:43:52;;;;;;;21.27;13.10;;;;;;;;;;4974463;28;20220;-76
2023/02/17 00:46:17;;;;;;;34.47;14.77;;;;;;;;;;4975836;28;20193;-77
2023/02/17 00:48:43;;;;;;;25.67;14.83;;;;;;;;;;4976622;28;20203;-77
2023/02/17 00:51:08;;;;;;;24.80;14.93;;;;;;;;;;4976006;28;20705;-76
2023/02/17 00:53:34;;;;;;;27.80;15.90;;;;;;;;;;4977569;28;20179;-76
2023/02/17 00:55:59;;;;;;;23.63;13.43;;;;;;;;;;4969029;28;20207;-77
2023/02/17 00:58:24;;;;;;;26.33;14.60;;;;;;;;;;4974511;28;20196;-77
2023/02/17 01:00:49;;;;;;;26.03;13.80;;;;;;;;;;4976671;28;20590;-77
2023/02/17 01:03:14;;;;;;;31.13;15.17;;;;;;;;;;4974713;28;20715;-77
2023/02/17 01:05:41;;;;;;;27.67;14.20;;;;;;;;;;4974822;28;20591;-76
2023/02/17 01:08:06;;;;;;;27.13;14.87;;;;;;;;;;4972230;28;20208;-77
2023/02/17 01:10:31;;;;;;;30.67;13.93;;;;;;;;;;4974038;28;20177;-76
2023/02/17 01:12:56;;;;;;;28.00;14.33;;;;;;;;;;4975317;28;20176;-77
2023/02/17 01:15:21;;;;;;;30.57;13.57;;;;;;;;;;4979355;28;20267;-77
2023/02/17 01:17:47;;;;;;;24.87;12.37;;;;;;;;;;4973459;28;20219;-76
2023/02/17 01:20:12;;;;;;;28.17;14.67;;;;;;;;;;4979057;28;20164;-77
2023/02/17 01:22:38;;;;;;;30.17;12.70;;;;;;;;;;4973188;28;20196;-76
2023/02/17 01:25:04;;;;;;;26.03;13.90;;;;;;;;;;4974802;28;20184;-79
2023/02/17 01:27:29;;;;;;;30.00;13.40;;;;;;;;;;4974304;28;20175;-77
2023/02/17 01:29:54;;;;;;;25.70;13.07;;;;;;;;;;4973824;28;20175;-76
2023/02/17 01:32:19;;;;;;;29.73;12.63;;;;;;;;;;4974945;28;20228;-76
2023/02/17 01:34:44;;;;;;;28.50;14.23;;;;;;;;;;4974592;28;20179;-76
2023/02/17 01:37:09;;;;;;;26.70;12.53;;;;;;;;;;4976862;28;20362;-77
2023/02/17 01:39:35;;;;;;;29.57;13.17;;;;;;;;;;4974335;28;20258;-76
2023/02/17 01:42:00;;;;;;;24.37;12.20;;;;;;;;;;4974791;28;20694;-76
2023/02/17 01:44:25;;;;;;;26.53;12.10;;;;;;;;;;4974054;28;20176;-77
2023/02/17 01:46:51;;;;;;;32.73;13.50;;;;;;;;;;4976144;28;20218;-77
2023/02/17 01:49:23;;;;;;;25.60;13.57;;;;;;;;;;4978275;28;20216;-76
2023/02/17 01:51:51;;;;;;;25.83;13.17;;;;;;;;;;4974904;28;20185;-76
2023/02/17 01:54:28;;;;;;;25.67;11.67;;;;;;;;;;4975603;28;20180;-76
2023/02/17 01:56:54;;;;;;;22.43;11.83;;;;;;;;;;4966241;28;20235;-76
2023/02/17 01:59:20;;;;;;;34.80;14.43;;;;;;;;;;4972550;28;20693;-76
2023/02/17 02:01:46;;;;;;;28.80;11.77;;;;;;;;;;4973080;28;20636;-76
2023/02/17 02:04:13;;;;;;;25.53;12.27;;;;;;;;;;4977697;28;20246;-76
2023/02/17 02:06:39;;;;;;;25.47;11.53;;;;;;;;;;4978457;28;20258;-75
2023/02/17 02:09:07;;;;;;;27.33;11.63;;;;;;;;;;4980426;28;20583;-75
2023/02/17 02:11:33;;;;;;;27.20;11.43;;;;;;;;;;4973575;28;20192;-75
2023/02/17 02:13:58;;;;;;;21.77;11.63;;;;;;;;;;4973617;28;20176;-76
2023/02/17 02:16:26;;;;;;;25.40;10.63;;;;;;;;;;4967887;28;20645;-74
2023/02/17 02:19:01;;;;;;;29.67;11.77;;;;;;;;;;4973409;28;20208;-75
2023/02/17 02:21:41;;;;;;;25.27;10.93;;;;;;;;;;4977893;28;20184;-77
2023/02/17 02:24:06;;;;;;;20.83;10.30;;;;;;;;;;4971050;28;20206;-77
2023/02/17 02:26:48;;;;;;;21.33;10.90;;;;;;;;;;4980469;28;20196;-77
2023/02/17 02:29:40;;;;;;;24.97;11.87;;;;;;;;;;4972001;28;20192;-77
2023/02/17 02:32:25;;;;;;;23.90;10.87;;;;;;;;;;4965922;28;20213;-75
2023/02/17 02:34:59;;;;;;;20.40;10.57;;;;;;;;;;4970721;28;20192;-75
2023/02/17 02:37:35;;;;;;;25.30;12.80;;;;;;;;;;4966760;28;20187;-75
2023/02/17 02:40:05;;;;;;;23.60;12.63;;;;;;;;;;4970948;28;20190;-75
2023/02/17 02:42:31;;;;;;;29.20;11.90;;;;;;;;;;4974885;28;20176;-75
2023/02/17 02:44:56;;;;;;;30.60;14.17;;;;;;;;;;4973424;28;20172;-75
2023/02/17 02:47:31;;;;;;;25.43;12.63;;;;;;;;;;4974617;28;20173;-75
2023/02/17 02:49:56;;;;;;;25.60;11.80;;;;;;;;;;4970906;28;20208;-75
2023/02/17 02:52:41;;;;;;;26.27;12.27;;;;;;;;;;4967357;28;20669;-77
2023/02/17 02:55:06;;;;;;;23.67;11.10;;;;;;;;;;4972988;28;20176;-77
2023/02/17 02:57:40;;;;;;;21.70;11.33;;;;;;;;;;4973203;28;20618;-76
2023/02/17 03:00:09;;;;;;;23.57;11.37;;;;;;;;;;4971045;28;20576;-77
2023/02/17 03:02:44;;;;;;;26.13;13.13;;;;;;;;;;4974659;28;20279;-77
2023/02/17 03:05:12;;;;;;;27.83;11.97;;;;;;;;;;4978055;28;20638;-76
2023/02/17 03:07:47;;;;;;;31.63;16.20;;;;;;;;;;4977205;28;20184;-76
2023/02/17 03:10:12;;;;;;;28.57;15.17;;;;;;;;;;4971285;28;20179;-77
2023/02/17 03:12:38;;;;;;;27.93;15.20;;;;;;;;;;4978169;28;20176;-77
2023/02/17 03:15:29;;;;;;;32.87;16.77;;;;;;;;;;4972027;28;20180;-77
2023/02/17 03:17:56;;;;;;;35.20;15.90;;;;;;;;;;4970513;28;20274;-76
2023/02/17 03:20:21;;;;;;;40.77;17.03;;;;;;;;;;4979036;28;20173;-77
2023/02/17 03:22:47;;;;;;;37.73;17.23;;;;;;;;;;4973749;28;20175;-77
2023/02/17 03:25:12;;;;;;;39.53;17.90;;;;;;;;;;4973197;28;20211;-77
2023/02/17 03:27:37;;;;;;;37.03;17.97;;;;;;;;;;4970148;28;20558;-77
2023/02/17 03:30:06;;;;;;;39.07;19.53;;;;;;;;;;4977662;28;20173;-77
2023/02/17 03:32:32;;;;;;;33.83;19.13;;;;;;;;;;4974087;28;20184;-77
2023/02/17 03:34:57;;;;;;;36.10;19.10;;;;;;;;;;4967196;28;20679;-77
2023/02/17 03:37:22;;;;;;;40.13;19.27;;;;;;;;;;4970560;28;20654;-77
2023/02/17 03:39:47;;;;;;;37.37;19.73;;;;;;;;;;4972258;28;20236;-75
2023/02/17 03:42:13;;;;;;;33.67;18.10;;;;;;;;;;4971390;28;20557;-74
2023/02/17 03:44:38;;;;;;;38.73;18.83;;;;;;;;;;4973076;28;20172;-75
2023/02/17 03:47:03;;;;;;;33.67;19.20;;;;;;;;;;4971746;28;20208;-77
2023/02/17 03:49:28;;;;;;;34.70;19.13;;;;;;;;;;4975123;28;20204;-76
2023/02/17 03:51:54;;;;;;;34.80;17.93;;;;;;;;;;4974586;28;20185;-77
2023/02/17 03:54:19;;;;;;;37.30;16.87;;;;;;;;;;4974079;28;20299;-76
2023/02/17 03:56:44;;;;;;;31.20;16.57;;;;;;;;;;4973613;28;20181;-76
2023/02/17 03:59:09;;;;;;;29.57;16.50;;;;;;;;;;4973224;28;20295;-76
2023/02/17 04:01:34;;;;;;;30.60;15.57;;;;;;;;;;4974822;28;20281;-76
2023/02/17 04:03:59;;;;;;;27.70;15.67;;;;;;;;;;4978180;28;20295;-77
2023/02/17 04:06:25;;;;;;;26.20;14.13;;;;;;;;;;4981582;28;20208;-77
2023/02/17 04:08:50;;;;;;;28.53;15.23;;;;;;;;;;4992379;28;20587;-78
2023/02/17 04:11:15;;;;;;;22.40;13.33;;;;;;;;;;4976365;28;20195;-77
2023/02/17 04:13:40;;;;;;;31.50;14.97;;;;;;;;;;4980894;28;20192;-77
2023/02/17 04:16:07;;;;;;;24.10;12.40;;;;;;;;;;4981443;28;20738;-77
2023/02/17 04:18:33;;;;;;;23.43;13.53;;;;;;;;;;4977939;28;20199;-77
2023/02/17 04:20:58;;;;;;;24.23;13.90;;;;;;;;;;4975961;28;20591;-78
2023/02/17 04:23:23;;;;;;;31.07;13.70;;;;;;;;;;4976031;28;20176;-78
2023/02/17 04:25:48;;;;;;;23.17;13.17;;;;;;;;;;4975250;28;20219;-77
2023/02/17 04:28:14;;;;;;;26.10;14.53;;;;;;;;;;4975025;28;20208;-77
2023/02/17 04:30:41;;;;;;;24.00;13.70;;;;;;;;;;4982790;28;20682;-78
2023/02/17 04:33:07;;;;;;;25.30;13.97;;;;;;;;;;4978558;28;20259;-77
2023/02/17 04:35:32;;;;;;;21.90;13.27;;;;;;;;;;4966802;28;20287;-77
2023/02/17 04:37:57;;;;;;;25.00;13.00;;;;;;;;;;4978449;28;20207;-77
2023/02/17 04:40:22;;;;;;;26.60;12.87;;;;;;;;;;4964452;28;20239;-78
2023/02/17 04:42:47;;;;;;;31.47;15.63;;;;;;;;;;4987488;28;20180;-77
2023/02/17 04:45:13;;;;;;;26.67;13.93;;;;;;;;;;4974243;28;20235;-77
2023/02/17 04:47:38;;;;;;;25.07;12.80;;;;;;;;;;4963683;28;20698;-77
2023/02/17 04:50:03;;;;;;;26.77;14.57;;;;;;;;;;4978426;28;20180;-78
2023/02/17 04:52:29;;;;;;;28.43;14.50;;;;;;;;;;4976996;28;20271;-77
2023/02/17 04:54:54;;;;;;;30.93;15.37;;;;;;;;;;4974737;28;20284;-78
2023/02/17 04:57:19;;;;;;;32.33;15.73;;;;;;;;;;4976442;28;20184;-78
2023/02/17 04:59:44;;;;;;;28.63;14.83;;;;;;;;;;4973906;28;20219;-77
2023/02/17 05:02:10;;;;;;;29.97;15.63;;;;;;;;;;4976434;28;20275;-77
2023/02/17 05:04:35;;;;;;;29.80;15.87;;;;;;;;;;4979022;28;20542;-78
2023/02/17 05:07:00;;;;;;;29.03;15.80;;;;;;;;;;4977830;28;20207;-78
2023/02/17 05:09:25;;;;;;;29.33;16.77;;;;;;;;;;4980008;28;20200;-78
2023/02/17 05:11:50;;;;;;;30.27;15.37;;;;;;;;;;4975046;28;20194;-78
2023/02/17 05:14:16;;;;;;;30.43;16.67;;;;;;;;;;4980474;28;20263;-78
2023/02/17 05:16:41;;;;;;;31.13;16.17;;;;;;;;;;4988667;28;20187;-78
2023/02/17 05:19:06;;;;;;;30.63;16.40;;;;;;;;;;4972910;28;20192;-78
2023/02/17 05:21:31;;;;;;;35.10;17.33;;;;;;;;;;4977272;28;20208;-77
2023/02/17 05:23:57;;;;;;;35.40;17.67;;;;;;;;;;4980315;28;20247;-77
2023/02/17 05:26:22;;;;;;;31.53;16.57;;;;;;;;;;4976114;28;20300;-78
2023/02/17 05:28:47;;;;;;;31.27;16.93;;;;;;;;;;4975489;28;20204;-78
2023/02/17 05:31:12;;;;;;;33.40;17.77;;;;;;;;;;4978933;28;20230;-78
2023/02/17 05:33:38;;;;;;;31.93;16.83;;;;;;;;;;4977216;28;20173;-77
2023/02/17 05:36:04;;;;;;;35.70;17.20;;;;;;;;;;4978262;28;20250;-78
2023/02/17 05:38:29;;;;;;;38.10;17.97;;;;;;;;;;4974417;28;20290;-77
2023/02/17 05:40:54;;;;;;;30.53;16.40;;;;;;;;;;4974214;28;20260;-77
2023/02/17 05:43:20;;;;;;;34.43;16.33;;;;;;;;;;4975606;28;20176;-77
2023/02/17 05:45:45;;;;;;;34.53;17.10;;;;;;;;;;4975343;28;20228;-77
2023/02/17 05:48:10;;;;;;;38.17;17.07;;;;;;;;;;4969173;28;20203;-77
2023/02/17 05:50:35;;;;;;;33.70;15.43;;;;;;;;;;4974089;28;20176;-76
2023/02/17 05:53:00;;;;;;;34.10;16.50;;;;;;;;;;4975457;28;20168;-77
2023/02/17 05:55:26;;;;;;;33.53;16.77;;;;;;;;;;4975161;28;21327;-77
2023/02/17 05:57:51;;;;;;;35.30;17.13;;;;;;;;;;4974624;28;20196;-77
2023/02/17 06:00:16;;;;;;;31.53;15.73;;;;;;;;;;4972508;28;20184;-77
2023/02/17 06:02:41;;;;;;;32.57;17.03;;;;;;;;;;4972647;28;20179;-78
2023/02/17 06:05:07;;;;;;;33.83;14.43;;;;;;;;;;4974501;28;20208;-77
2023/02/17 06:07:32;;;;;;;31.53;15.47;;;;;;;;;;4972564;28;20165;-77
2023/02/17 06:09:57;;;;;;;34.83;14.40;;;;;;;;;;4973020;28;20176;-78
2023/02/17 06:12:22;;;;;;;30.47;14.60;;;;;;;;;;4978787;28;20187;-78
2023/02/17 06:14:48;;;;;;;35.60;16.57;;;;;;;;;;4971369;28;20634;-76
2023/02/17 06:17:13;;;;;;;28.90;14.10;;;;;;;;;;4970054;28;20239;-76
2023/02/17 06:19:38;;;;;;;31.67;15.03;;;;;;;;;;4975036;28;20207;-76
2023/02/17 06:22:03;;;;;;;34.40;16.80;;;;;;;;;;4980801;28;20271;-76
2023/02/17 06:24:28;;;;;;;28.43;14.07;;;;;;;;;;4978923;28;20172;-76
2023/02/17 06:26:54;;;;;;;29.07;14.37;;;;;;;;;;4965551;28;20203;-76
2023/02/17 06:29:19;;;;;;;30.93;15.50;;;;;;;;;;4972383;28;20212;-76
2023/02/17 06:31:44;;;;;;;31.83;14.03;;;;;;;;;;4972250;28;20184;-76
2023/02/17 06:34:09;;;;;;;28.67;12.90;;;;;;;;;;4974406;28;20188;-76
2023/02/17 06:36:34;;;;;;;30.10;14.90;;;;;;;;;;4972062;28;20264;-77
2023/02/17 06:39:00;;;;;;;27.77;13.47;;;;;;;;;;4968932;28;20295;-78
2023/02/17 06:41:25;;;;;;;29.17;13.77;;;;;;;;;;4974262;28;20180;-78
2023/02/17 06:43:50;;;;;;;27.43;13.73;;;;;;;;;;4973251;28;20231;-76
2023/02/17 06:46:15;;;;;;;26.90;14.13;;;;;;;;;;4971879;28;20717;-77
2023/02/17 06:48:40;;;;;;;30.50;15.37;;;;;;;;;;4965427;28;20208;-77
2023/02/17 06:51:05;;;;;;;27.10;14.10;;;;;;;;;;4968926;28;20235;-77
2023/02/17 06:53:31;;;;;;;25.67;13.30;;;;;;;;;;4974405;28;20179;-76
2023/02/17 06:55:56;;;;;;;25.43;12.90;;;;;;;;;;4973601;28;20184;-78
2023/02/17 06:58:21;;;;;;;26.30;13.60;;;;;;;;;;4981494;28;20282;-77
2023/02/17 07:00:46;;;;;;;24.73;11.90;;;;;;;;;;4964251;28;20284;-78
2023/02/17 07:03:11;;;;;;;21.77;11.90;;;;;;;;;;4970871;28;20184;-78
2023/02/17 07:05:38;;;;;;;23.03;12.07;;;;;;;;;;4968157;28;20271;-77
2023/02/17 07:08:04;;;;;;;22.70;11.33;;;;;;;;;;4971760;28;20208;-77
2023/02/17 07:10:29;;;;;;;20.00;10.30;;;;;;;;;;4973560;28;20314;-77
2023/02/17 07:12:55;;;;;;;19.40;10.47;;;;;;;;;;4975318;28;20591;-78
2023/02/17 07:15:20;;;;;;;20.00;10.73;;;;;;;;;;4974207;28;20190;-78
2023/02/17 07:17:45;;;;;;;30.17;12.60;;;;;;;;;;4973055;28;20674;-78
2023/02/17 07:20:10;;;;;;;21.43;10.83;;;;;;;;;;4969522;28;20192;-79
2023/02/17 07:22:36;;;;;;;21.67;10.40;;;;;;;;;;4970450;28;20192;-78
2023/02/17 07:25:01;;;;;;;18.27;10.83;;;;;;;;;;4977251;28;20183;-78
2023/02/17 07:27:27;;;;;;;18.27;9.83;;;;;;;;;;4980139;28;20219;-78
2023/02/17 07:29:52;;;;;;;19.87;10.00;;;;;;;;;;4974320;28;20243;-77
2023/02/17 07:32:17;;;;;;;18.23;10.13;;;;;;;;;;4985952;28;20650;-78
2023/02/17 07:34:43;;;;;;;17.27;9.43;;;;;;;;;;4975059;28;20180;-78
2023/02/17 07:37:08;;;;;;;23.07;10.07;;;;;;;;;;4969893;28;20662;-78
2023/02/17 07:39:34;;;;;;;16.90;9.53;;;;;;;;;;4976132;28;20732;-78
2023/02/17 07:41:59;;;;;;;17.33;9.53;;;;;;;;;;4973684;28;20176;-76
2023/02/17 07:44:26;;;;;;;17.73;10.13;;;;;;;;;;4976637;28;20203;-78
2023/02/17 07:46:51;;;;;;;16.30;8.73;;;;;;;;;;4973073;28;20266;-75
2023/02/17 07:49:17;;;;;;;18.27;10.43;;;;;;;;;;4959389;28;20196;-78
2023/02/17 07:51:42;;;;;;;15.97;9.37;;;;;;;;;;4970348;28;20283;-76
2023/02/17 07:54:07;;;;;;;15.80;10.83;;;;;;;;;;4973716;28;20196;-77
2023/02/17 07:56:32;;;;;;;16.73;10.70;;;;;;;;;;4974158;28;20651;-77
2023/02/17 07:58:58;;;;;;;17.23;9.97;;;;;;;;;;4970197;28;20208;-76
2023/02/17 08:01:24;;;;;;;19.87;11.07;;;;;;;;;;4974325;28;20192;-77
2023/02/17 08:03:49;;;;;;;18.47;9.90;;;;;;;;;;4977083;28;20278;-76
2023/02/17 08:06:17;;;;;;;16.13;9.83;;;;;;;;;;4972695;28;20254;-77
2023/02/17 08:14:10;;;;;;;15.43;9.77;;;;;;;;;;4976319;28;20187;-78
2023/02/17 08:16:35;;;;;;;12.77;8.27;;;;;;;;;;4975314;28;20181;-77
2023/02/17 08:19:00;;;;;;;13.17;9.30;;;;;;;;;;4974457;28;20687;-78
2023/02/17 08:21:26;;;;;;;14.00;9.13;;;;;;;;;;4975080;28;20702;-78
2023/02/17 08:23:51;;;;;;;14.37;8.87;;;;;;;;;;4972000;28;20725;-77
2023/02/17 08:26:17;;;;;;;13.83;8.77;;;;;;;;;;4971915;28;20234;-78
2023/02/17 08:28:43;;;;;;;16.27;9.03;;;;;;;;;;4971476;28;20204;-77
2023/02/17 08:31:19;;;;;;;13.30;7.83;;;;;;;;;;4973066;28;20279;-78
2023/02/17 08:33:44;;;;;;;13.73;9.13;;;;;;;;;;4975994;28;20603;-78
2023/02/17 08:36:10;;;;;;;14.13;9.00;;;;;;;;;;4970264;28;20211;-78
2023/02/17 08:38:35;;;;;;;13.77;8.63;;;;;;;;;;4976518;28;20314;-78
2023/02/17 08:41:00;;;;;;;13.13;8.40;;;;;;;;;;4974560;28;20658;-77
2023/02/17 08:43:25;;;;;;;12.57;7.87;;;;;;;;;;4988793;28;20180;-78
2023/02/17 08:45:51;;;;;;;14.73;7.80;;;;;;;;;;4978255;28;20232;-78
2023/02/17 08:48:16;;;;;;;11.93;7.60;;;;;;;;;;4976022;28;20196;-79
2023/02/17 08:50:41;;;;;;;12.43;8.13;;;;;;;;;;4978059;28;20172;-78
2023/02/17 08:53:07;;;;;;;12.67;7.17;;;;;;;;;;4974545;28;20647;-78
2023/02/17 08:55:33;;;;;;;12.10;7.57;;;;;;;;;;4974285;28;20556;-78
2023/02/17 08:57:58;;;;;;;11.00;7.30;;;;;;;;;;4974976;28;20216;-79
2023/02/17 09:00:23;;;;;;;13.27;7.20;;;;;;;;;;4974143;28;20203;-78
2023/02/17 09:02:49;;;;;;;12.13;7.22;;;;;;;;;;4975878;28;20185;-79
2023/02/17 09:05:14;;;;;;;11.90;7.50;;;;;;;;;;4968686;28;20196;-78
2023/02/17 09:07:39;;;;;;;11.10;6.83;;;;;;;;;;4966762;28;20665;-78
2023/02/17 09:10:06;;;;;;;10.87;7.33;;;;;;;;;;4976708;28;20188;-78
2023/02/17 09:12:31;;;;;;;10.90;7.60;;;;;;;;;;4969839;28;20215;-79
2023/02/17 09:14:56;;;;;;;12.20;7.87;;;;;;;;;;4972362;28;20655;-77
2023/02/17 09:17:21;;;;;;;11.57;7.40;;;;;;;;;;4973647;28;20180;-77
2023/02/17 09:19:47;;;;;;;12.50;7.27;;;;;;;;;;4970366;28;20689;-78
2023/02/17 09:22:13;;;;;;;10.30;6.93;;;;;;;;;;4972097;28;20172;-78
2023/02/17 09:24:39;;;;;;;10.23;7.13;;;;;;;;;;4970180;28;20754;-78
2023/02/17 09:27:04;;;;;;;9.43;6.50;;;;;;;;;;4975695;28;20306;-78
2023/02/17 09:29:29;;;;;;;8.65;6.68;;;;;;;;;;4990083;28;20235;-78
2023/02/17 09:31:54;;;;;;;10.15;6.35;;;;;;;;;;4974461;28;20187;-78
2023/02/17 09:34:19;;;;;;;10.00;5.87;;;;;;;;;;4973914;28;20548;-77
2023/02/17 09:36:45;;;;;;;11.90;7.07;;;;;;;;;;4976758;28;20172;-79
2023/02/17 09:39:12;;;;;;;12.73;7.83;;;;;;;;;;4975653;28;20279;-79
2023/02/17 09:41:48;;;;;;;11.50;7.70;;;;;;;;;;4974260;28;20192;-78
2023/02/17 09:44:19;;;;;;;10.97;7.37;;;;;;;;;;4970981;28;20180;-78
2023/02/17 09:46:48;;;;;;;13.97;8.60;;;;;;;;;;4963330;28;20601;-78
2023/02/17 09:49:16;;;;;;;9.40;6.40;;;;;;;;;;4972572;28;20204;-79
2023/02/17 09:51:47;;;;;;;8.20;5.40;;;;;;;;;;4970912;28;20188;-79
2023/02/17 09:54:28;;;;;;;9.60;5.25;;;;;;;;;;4974015;28;20176;-78
2023/02/17 09:56:54;;;;;;;11.07;6.13;;;;;;;;;;4973071;28;20234;-78
2023/02/17 09:59:32;;;;;;;12.47;6.90;;;;;;;;;;4961648;28;20211;-78
2023/02/17 10:01:58;;;;;;;8.40;5.57;;;;;;;;;;4968572;28;20184;-79
2023/02/17 10:04:36;;;;;;;9.03;7.43;;;;;;;;;;4973393;28;20250;-79
2023/02/17 10:07:06;;;;;;;10.32;6.53;;;;;;;;;;4971948;28;20235;-78
2023/02/17 10:09:44;;;;;;;13.65;7.22;;;;;;;;;;4974252;28;20197;-78
2023/02/17 10:12:14;;;;;;;13.63;7.77;;;;;;;;;;4973481;28;20188;-77
2023/02/17 10:14:42;;;;;;;10.88;7.22;;;;;;;;;;4969069;28;20666;-77
2023/02/17 10:17:12;;;;;;;10.82;6.97;;;;;;;;;;4970100;28;20251;-77
2023/02/17 10:19:43;;;;;;;11.80;6.47;;;;;;;;;;4975372;28;20217;-77
2023/02/17 10:22:18;;;;;;;12.13;7.47;;;;;;;;;;4974223;28;20184;-77
2023/02/17 10:24:44;;;;;;;12.40;5.90;;;;;;;;;;4973559;28;20218;-77
2023/02/17 10:27:18;;;;;;;11.87;6.50;;;;;;;;;;4973508;28;20244;-77
2023/02/17 10:29:52;;;;;;;12.18;7.35;;;;;;;;;;4983860;28;20203;-76
2023/02/17 10:32:22;;;;;;;12.37;7.17;;;;;;;;;;4972210;28;20584;-76
2023/02/17 10:34:47;;;;;;;9.75;6.38;;;;;;;;;;4967130;28;20215;-76
2023/02/17 10:37:17;;;;;;;12.60;6.95;;;;;;;;;;4974003;28;20670;-76
2023/02/17 10:39:48;;;;;;;11.70;5.10;;;;;;;;;;4974342;28;20319;-78
2023/02/17 10:42:17;;;;;;;8.30;5.45;;;;;;;;;;4973906;28;20192;-76
2023/02/17 10:44:43;;;;;;;9.27;5.85;;;;;;;;;;4973568;28;20215;-76
2023/02/17 10:47:08;;;;;;;8.07;5.27;;;;;;;;;;4969127;28;20244;-76
2023/02/17 10:49:35;;;;;;;8.48;5.88;;;;;;;;;;4968987;28;20360;-76
2023/02/17 10:52:08;;;;;;;9.07;5.80;;;;;;;;;;4967464;28;20230;-77
2023/02/17 10:54:39;;;;;;;14.90;6.68;;;;;;;;;;4973984;28;20184;-78
2023/02/17 10:57:07;;;;;;;8.65;7.10;;;;;;;;;;4974268;28;20318;-77
2023/02/17 10:59:36;;;;;;;10.80;5.53;;;;;;;;;;4974404;28;20204;-77
2023/02/17 11:02:17;;;;;;;9.00;6.82;;;;;;;;;;4972652;28;20597;-77
2023/02/17 11:04:43;;;;;;;9.70;6.37;;;;;;;;;;4985435;28;20180;-77
2023/02/17 11:07:12;;;;;;;8.90;6.17;;;;;;;;;;4968311;28;20796;-77
2023/02/17 11:09:48;;;;;;;10.60;6.23;;;;;;;;;;4974339;28;20642;-76
2023/02/17 11:12:20;;;;;;;12.37;7.00;;;;;;;;;;4975550;28;20180;-77
2023/02/17 11:14:47;;;;;;;10.30;6.50;;;;;;;;;;4972321;28;20303;-77
2023/02/17 11:17:25;;;;;;;8.95;6.47;;;;;;;;;;4971713;28;20219;-77
2023/02/17 11:19:55;;;;;;;9.57;5.90;;;;;;;;;;4973238;28;20583;-77
2023/02/17 11:22:31;;;;;;;13.47;6.17;;;;;;;;;;4970055;28;20615;-77
2023/02/17 11:24:57;;;;;;;10.63;6.17;;;;;;;;;;4971625;28;20184;-77
2023/02/17 11:27:24;;;;;;;8.47;5.13;;;;;;;;;;4971492;28;20680;-77
2023/02/17 11:29:50;;;;;;;10.87;5.47;;;;;;;;;;4973183;28;20187;-76
2023/02/17 11:32:15;;;;;;;9.97;5.73;;;;;;;;;;4983017;28;20267;-76
2023/02/17 11:34:41;;;;;;;12.83;6.77;;;;;;;;;;4971928;28;20211;-78
2023/02/17 11:37:07;;;;;;;9.70;6.40;;;;;;;;;;4974783;28;20186;-78
2023/02/17 11:39:36;;;;;;;10.70;7.00;;;;;;;;;;4971499;28;20207;-78
2023/02/17 11:42:01;;;;;;;11.70;5.93;;;;;;;;;;4970565;28;20180;-77
2023/02/17 11:44:27;;;;;;;11.70;5.00;;;;;;;;;;4966526;28;20318;-78
2023/02/17 11:47:01;;;;;;;14.33;5.77;;;;;;;;;;4970899;28;20206;-77
2023/02/17 11:49:51;;;;;;;8.80;4.80;;;;;;;;;;4969654;28;20239;-77
2023/02/17 11:52:29;;;;;;;12.07;5.00;;;;;;;;;;4970427;28;20289;-77
2023/02/17 11:54:57;;;;;;;9.63;4.37;;;;;;;;;;4970975;28;20217;-78
2023/02/17 11:57:22;;;;;;;8.30;4.30;;;;;;;;;;4966029;28;20185;-76
2023/02/17 11:59:56;;;;;;;9.43;4.27;;;;;;;;;;4968671;28;20204;-76
2023/02/17 12:02:33;;;;;;;9.97;4.30;;;;;;;;;;4972274;28;20235;-77
2023/02/17 12:05:17;;;;;;;9.13;4.33;;;;;;;;;;4969353;28;20600;-77
2023/02/17 12:07:57;;;;;;;8.83;4.20;;;;;;;;;;4973330;28;20234;-77
2023/02/17 12:10:30;;;;;;;8.33;3.80;;;;;;;;;;4969919;28;20512;-75
2023/02/17 12:13:01;;;;;;;7.67;3.77;;;;;;;;;;4970028;28;20646;-76
2023/02/17 12:15:38;;;;;;;8.20;4.20;;;;;;;;;;4970299;28;20224;-76
2023/02/17 12:18:06;;;;;;;8.90;4.37;;;;;;;;;;4972616;28;20191;-77
2023/02/17 12:20:48;;;;;;;8.00;4.30;;;;;;;;;;4973984;28;20173;-77
2023/02/17 12:23:32;;;;;;;11.33;4.83;;;;;;;;;;4976874;28;20172;-77
2023/02/17 12:26:16;;;;;;;11.15;4.78;;;;;;;;;;4973777;28;20701;-77
2023/02/17 12:28:51;;;;;;;9.13;4.83;;;;;;;;;;4974745;28;20211;-77
2023/02/17 12:31:35;;;;;;;13.93;5.17;;;;;;;;;;4975447;28;20226;-77
2023/02/17 12:34:05;;;;;;;12.10;5.30;;;;;;;;;;4969123;28;20705;-77
2023/02/17 12:36:36;;;;;;;11.03;5.40;;;;;;;;;;4976446;28;20181;-77
2023/02/17 12:39:02;;;;;;;18.80;5.00;;;;;;;;;;4975487;28;20216;-77
2023/02/17 12:41:28;;;;;;;7.03;4.57;;;;;;;;;;4975130;28;20673;-77
2023/02/17 12:44:06;;;;;;;11.40;5.70;;;;;;;;;;4973013;28;20268;-76
2023/02/17 12:46:40;;;;;;;11.70;5.77;;;;;;;;;;4974814;28;20649;-76
2023/02/17 12:49:10;;;;;;;12.17;5.77;;;;;;;;;;4977957;28;20200;-77
2023/02/17 12:51:48;;;;;;;17.43;6.40;;;;;;;;;;4982946;28;20279;-77
2023/02/17 12:54:17;;;;;;;12.73;5.60;;;;;;;;;;4972843;28;20176;-77
2023/02/17 12:56:49;;;;;;;13.27;7.27;;;;;;;;;;4973127;28;20185;-77
2023/02/17 12:59:16;;;;;;;12.17;6.70;;;;;;;;;;4972179;28;20235;-77
2023/02/17 13:01:46;;;;;;;16.67;9.20;;;;;;;;;;4974486;28;20650;-76
2023/02/17 13:04:14;;;;;;;13.90;7.43;;;;;;;;;;4976123;28;20204;-75
2023/02/17 13:06:41;;;;;;;15.90;6.83;;;;;;;;;;4988868;28;20298;-77
2023/02/17 13:09:26;;;;;;;13.67;6.50;;;;;;;;;;4975481;28;20184;-76
2023/02/17 13:11:51;;;;;;;14.43;6.73;;;;;;;;;;4973725;28;20191;-77
2023/02/17 13:14:38;;;;;;;13.20;7.23;;;;;;;;;;4972989;28;20181;-77
2023/02/17 13:17:03;;;;;;;11.50;6.80;;;;;;;;;;4972363;28;20192;-76
2023/02/17 13:19:29;;;;;;;13.90;7.13;;;;;;;;;;4976787;28;20732;-77
2023/02/17 13:21:56;;;;;;;11.23;7.57;;;;;;;;;;4973039;28;20238;-78
2023/02/17 13:24:32;;;;;;;13.37;7.10;;;;;;;;;;4972403;28;20184;-77
2023/02/17 13:27:07;;;;;;;15.57;7.43;;;;;;;;;;4963895;28;20200;-76
2023/02/17 13:29:34;;;;;;;13.17;7.70;;;;;;;;;;4977480;28;20222;-75
2023/02/17 13:32:05;;;;;;;18.47;8.00;;;;;;;;;;4975940;28;20176;-76
2023/02/17 13:34:34;;;;;;;14.87;6.23;;;;;;;;;;4980208;28;20168;-77
2023/02/17 13:37:01;;;;;;;11.53;6.43;;;;;;;;;;4997207;28;20184;-78
2023/02/17 13:39:27;;;;;;;11.97;6.53;;;;;;;;;;4980747;28;20531;-77
2023/02/17 13:41:53;;;;;;;12.63;6.35;;;;;;;;;;4982125;28;20590;-76
2023/02/17 13:44:22;;;;;;;12.00;5.97;;;;;;;;;;4980726;28;20187;-76
2023/02/17 13:46:47;;;;;;;10.38;6.07;;;;;;;;;;4980412;28;20208;-77
2023/02/17 13:49:19;;;;;;;10.75;5.55;;;;;;;;;;4979887;28;20246;-77
2023/02/17 13:51:44;;;;;;;14.40;5.90;;;;;;;;;;4979828;28;20204;-77
2023/02/17 13:54:11;;;;;;;7.73;5.27;;;;;;;;;;4981278;28;20176;-77
2023/02/17 13:56:36;;;;;;;15.00;6.90;;;;;;;;;;4983257;28;20200;-77
2023/02/17 13:59:10;;;;;;;12.95;6.35;;;;;;;;;;4979397;28;20207;-77
2023/02/17 14:01:36;;;;;;;11.55;6.28;;;;;;;;;;4976528;28;20183;-76
2023/02/17 14:04:02;;;;;;;9.57;5.80;;;;;;;;;;4978131;28;20184;-77
2023/02/17 14:06:29;;;;;;;15.43;6.13;;;;;;;;;;4978320;28;20212;-76
2023/02/17 14:08:55;;;;;;;9.55;6.22;;;;;;;;;;4980525;28;20301;-77
2023/02/17 14:11:22;;;;;;;16.05;5.90;;;;;;;;;;4980079;28;20594;-77
2023/02/17 14:13:48;;;;;;;13.33;5.63;;;;;;;;;;4973474;28;20183;-77
2023/02/17 14:16:32;;;;;;;13.30;6.53;;;;;;;;;;4980009;28;20180;-76
2023/02/17 14:19:10;;;;;;;17.38;7.65;;;;;;;;;;4975982;28;20585;-77
2023/02/17 14:21:36;;;;;;;12.13;5.35;;;;;;;;;;4968334;28;20981;-77
2023/02/17 14:24:02;;;;;;;14.95;6.00;;;;;;;;;;4979333;28;20737;-77
2023/02/17 14:26:27;;;;;;;13.38;6.70;;;;;;;;;;4979288;28;20224;-76
2023/02/17 14:28:57;;;;;;;14.87;5.80;;;;;;;;;;4974939;28;20294;-76
2023/02/17 14:31:23;;;;;;;16.85;6.32;;;;;;;;;;4973406;28;20180;-76